Time;durP1;ratioP1;P1;durP2;ratioP2;P2;SDS_P1;SDS_P2;PMS_P1;PMS_P2;Temp;Humidity;BMP_temperature;BMP_pressure;BME280_temperature;BME280_humidity;BME280_pressure;Samples;Min_cycle;Max_cycle;Signal;HPM_P1;HPM_P2
2022/02/17 00:01:07;;;;;;;0.50;0.33;;;;;;;;;;4469504;28;20039;-61
2022/02/17 00:03:17;;;;;;;0.80;0.47;;;;;;;;;;4468721;28;23993;-61
2022/02/17 00:05:31;;;;;;;0.60;0.40;;;;;;;;;;4451660;28;27261;-60
2022/02/17 00:07:41;;;;;;;1.20;0.50;;;;;;;;;;4468747;28;20035;-60
2022/02/17 00:09:53;;;;;;;0.57;0.38;;;;;;;;;;4435615;28;20115;-60
2022/02/17 00:12:03;;;;;;;1.67;0.57;;;;;;;;;;4468275;28;20082;-60
2022/02/17 00:14:14;;;;;;;0.70;0.50;;;;;;;;;;4426501;28;20043;-60
2022/02/17 00:16:24;;;;;;;0.50;0.30;;;;;;;;;;4451656;28;20797;-61
2022/02/17 00:18:35;;;;;;;0.53;0.27;;;;;;;;;;4447718;28;20039;-61
2022/02/17 00:20:45;;;;;;;1.33;0.47;;;;;;;;;;4468961;28;20192;-60
2022/02/17 00:22:56;;;;;;;3.33;0.80;;;;;;;;;;4469489;28;20499;-61
2022/02/17 00:25:07;;;;;;;0.73;0.40;;;;;;;;;;4452060;28;20094;-60
2022/02/17 00:27:17;;;;;;;2.13;0.60;;;;;;;;;;4451901;28;20034;-62
2022/02/17 00:29:28;;;;;;;0.93;0.60;;;;;;;;;;4451828;28;20415;-62
2022/02/17 00:31:41;;;;;;;0.30;0.30;;;;;;;;;;4467545;28;20035;-62
2022/02/17 00:33:52;;;;;;;;;;;;;;;;;;4469242;28;20752;-62
2022/02/17 00:36:02;;;;;;;2.40;0.63;;;;;;;;;;4453127;28;19977;-62
2022/02/17 00:38:13;;;;;;;0.88;0.40;;;;;;;;;;4451943;28;20487;-62
2022/02/17 00:40:24;;;;;;;1.33;0.60;;;;;;;;;;4468064;28;20042;-63
2022/02/17 00:42:34;;;;;;;1.77;0.40;;;;;;;;;;4436017;28;20041;-62
2022/02/17 00:44:47;;;;;;;0.90;0.40;;;;;;;;;;4469207;28;20057;-62
2022/02/17 00:46:58;;;;;;;2.20;0.50;;;;;;;;;;4467839;28;20100;-62
2022/02/17 00:49:08;;;;;;;1.10;0.50;;;;;;;;;;4452366;28;20078;-62
2022/02/17 00:51:19;;;;;;;0.83;0.50;;;;;;;;;;4451125;28;20046;-62
2022/02/17 00:53:29;;;;;;;2.43;0.60;;;;;;;;;;4469397;28;20039;-62
2022/02/17 00:55:40;;;;;;;1.23;0.50;;;;;;;;;;4467312;28;20070;-62
2022/02/17 00:57:50;;;;;;;0.73;0.40;;;;;;;;;;4469080;28;20038;-62
2022/02/17 01:00:04;;;;;;;0.77;0.47;;;;;;;;;;4466743;28;20578;-62
2022/02/17 01:02:18;;;;;;;0.43;0.32;;;;;;;;;;4466995;28;20046;-62
2022/02/17 01:04:30;;;;;;;1.40;0.57;;;;;;;;;;4467225;28;20109;-62
2022/02/17 01:06:42;;;;;;;0.90;0.50;;;;;;;;;;4466841;28;20039;-62
2022/02/17 01:08:52;;;;;;;1.77;0.40;;;;;;;;;;4449563;28;20199;-62
2022/02/17 01:11:06;;;;;;;1.00;0.70;;;;;;;;;;4466441;28;20038;-61
2022/02/17 01:13:17;;;;;;;1.90;0.60;;;;;;;;;;4451210;28;20039;-62
2022/02/17 01:15:27;;;;;;;0.90;0.60;;;;;;;;;;4468795;28;20175;-62
2022/02/17 01:17:38;;;;;;;1.53;0.53;;;;;;;;;;4467271;28;43915;-61
2022/02/17 01:19:48;;;;;;;1.13;0.50;;;;;;;;;;4452615;28;20122;-62
2022/02/17 01:21:59;;;;;;;1.57;0.50;;;;;;;;;;4466803;28;20565;-62
2022/02/17 01:24:11;;;;;;;1.27;0.40;;;;;;;;;;4467289;28;20130;-61
2022/02/17 01:26:22;;;;;;;1.40;0.52;;;;;;;;;;4435105;28;20076;-62
2022/02/17 01:28:40;;;;;;;1.02;0.40;;;;;;;;;;4453059;28;20772;-61
2022/02/17 01:30:50;;;;;;;0.30;0.30;;;;;;;;;;4467643;28;20042;-62
2022/02/17 01:33:03;;;;;;;1.25;0.50;;;;;;;;;;4466623;28;20019;-62
2022/02/17 01:35:16;;;;;;;1.08;0.40;;;;;;;;;;4466368;28;20035;-61
2022/02/17 01:37:45;;;;;;;0.35;0.32;;;;;;;;;;4466805;28;20049;-62
2022/02/17 01:39:55;;;;;;;1.20;0.50;;;;;;;;;;4446506;28;20114;-62
2022/02/17 01:42:10;;;;;;;1.08;0.40;;;;;;;;;;4466601;28;20464;-62
2022/02/17 01:44:21;;;;;;;1.63;0.47;;;;;;;;;;4465693;28;20653;-62
2022/02/17 01:46:37;;;;;;;0.70;0.30;;;;;;;;;;4468387;28;20031;-61
2022/02/17 01:48:47;;;;;;;0.93;0.40;;;;;;;;;;4467837;28;20035;-61
2022/02/17 01:50:58;;;;;;;1.10;0.50;;;;;;;;;;4466407;28;20038;-62
2022/02/17 01:53:09;;;;;;;;;;;;;;;;;;4467452;28;20777;-62
2022/02/17 01:55:20;;;;;;;0.93;0.47;;;;;;;;;;4466994;28;19929;-61
2022/02/17 01:57:31;;;;;;;0.70;0.40;;;;;;;;;;4466944;28;20039;-62
2022/02/17 01:59:47;;;;;;;1.88;0.52;;;;;;;;;;4450204;28;20035;-61
2022/02/17 02:02:04;;;;;;;3.00;0.55;;;;;;;;;;4466680;28;20926;-61
2022/02/17 02:04:16;;;;;;;2.80;0.73;;;;;;;;;;4444867;28;20126;-62
2022/02/17 02:06:27;;;;;;;;;;;;;;;;;;4450861;28;20039;-62
2022/02/17 02:08:46;;;;;;;1.70;0.68;;;;;;;;;;4466461;28;21062;-62
2022/02/17 02:10:57;;;;;;;2.10;0.67;;;;;;;;;;4466319;28;20031;-62
2022/02/17 02:13:08;;;;;;;1.77;0.60;;;;;;;;;;4465948;28;20278;-64
2022/02/17 02:15:28;;;;;;;0.80;0.45;;;;;;;;;;4466397;28;20561;-61
2022/02/17 02:17:40;;;;;;;2.40;0.80;;;;;;;;;;4466306;28;20038;-61
2022/02/17 02:19:57;;;;;;;2.95;1.00;;;;;;;;;;4451560;28;20039;-62
2022/02/17 02:22:07;;;;;;;1.70;0.57;;;;;;;;;;4466832;28;20039;-61
2022/02/17 02:24:18;;;;;;;1.40;0.67;;;;;;;;;;4469691;28;20078;-62
2022/02/17 02:26:29;;;;;;;1.85;0.65;;;;;;;;;;4453727;28;20043;-62
2022/02/17 02:28:41;;;;;;;2.22;0.82;;;;;;;;;;4456401;28;20039;-61
2022/02/17 02:30:52;;;;;;;1.37;0.50;;;;;;;;;;4470679;28;20503;-61
2022/02/17 02:33:03;;;;;;;1.23;0.70;;;;;;;;;;4469214;28;20047;-61
2022/02/17 02:35:16;;;;;;;1.48;0.60;;;;;;;;;;4469038;28;20050;-62
2022/02/17 02:37:26;;;;;;;2.85;0.85;;;;;;;;;;4468155;28;20038;-61
2022/02/17 02:39:37;;;;;;;2.23;0.73;;;;;;;;;;4470319;28;20330;-62
2022/02/17 02:41:48;;;;;;;1.40;0.57;;;;;;;;;;4452665;28;20036;-61
2022/02/17 02:44:00;;;;;;;2.30;0.80;;;;;;;;;;4468628;28;20059;-61
2022/02/17 02:46:11;;;;;;;2.25;0.60;;;;;;;;;;4468741;28;20743;-61
2022/02/17 02:48:23;;;;;;;1.20;0.55;;;;;;;;;;4448647;28;20119;-62
2022/02/17 02:50:35;;;;;;;1.70;0.60;;;;;;;;;;4469455;28;20459;-62
2022/02/17 02:52:45;;;;;;;2.22;0.60;;;;;;;;;;4437926;28;20130;-62
2022/02/17 02:54:56;;;;;;;0.85;0.47;;;;;;;;;;4437436;28;20040;-62
2022/02/17 02:57:07;;;;;;;1.77;0.70;;;;;;;;;;4468564;28;20918;-61
2022/02/17 02:59:18;;;;;;;1.47;0.50;;;;;;;;;;4469199;28;20525;-61
2022/02/17 03:01:28;;;;;;;2.33;0.90;;;;;;;;;;4468744;28;20039;-62
2022/02/17 03:03:39;;;;;;;3.00;0.67;;;;;;;;;;4470625;28;20042;-61
2022/02/17 03:05:49;;;;;;;2.10;0.80;;;;;;;;;;4469270;28;20400;-62
2022/02/17 03:08:01;;;;;;;;;;;;;;;;;;4453397;28;20041;-62
2022/02/17 03:10:11;;;;;;;2.55;0.85;;;;;;;;;;4447786;28;19925;-61
2022/02/17 03:12:22;;;;;;;2.78;0.95;;;;;;;;;;4468557;28;20522;-62
2022/02/17 03:14:32;;;;;;;2.77;0.90;;;;;;;;;;4470740;28;20039;-62
2022/02/17 03:16:43;;;;;;;3.30;1.07;;;;;;;;;;4468773;28;20038;-62
2022/02/17 03:18:58;;;;;;;1.80;1.10;;;;;;;;;;4468815;28;20031;-62
2022/02/17 03:21:08;;;;;;;2.65;0.90;;;;;;;;;;4452926;28;20625;-62
2022/02/17 03:23:19;;;;;;;2.63;0.77;;;;;;;;;;4436556;28;20065;-61
2022/02/17 03:25:31;;;;;;;3.63;0.95;;;;;;;;;;4439389;28;20106;-62
2022/02/17 03:27:50;;;;;;;4.07;1.10;;;;;;;;;;4422002;28;20109;-62
2022/02/17 03:30:19;;;;;;;3.63;1.08;;;;;;;;;;4452528;28;20027;-62
2022/02/17 03:32:33;;;;;;;3.30;0.95;;;;;;;;;;4435933;28;20134;-62
2022/02/17 03:34:44;;;;;;;3.30;1.02;;;;;;;;;;4468163;28;20146;-62
2022/02/17 03:36:54;;;;;;;3.20;1.00;;;;;;;;;;4468620;28;20094;-62
2022/02/17 03:39:07;;;;;;;2.72;1.23;;;;;;;;;;4448306;28;20107;-62
2022/02/17 03:41:37;;;;;;;4.05;1.17;;;;;;;;;;4451035;28;20039;-61
2022/02/17 03:43:54;;;;;;;1.95;0.80;;;;;;;;;;4468393;28;20039;-62
2022/02/17 03:46:11;;;;;;;4.40;1.25;;;;;;;;;;4427502;28;20131;-61
2022/02/17 03:48:23;;;;;;;4.18;1.25;;;;;;;;;;4468139;28;20074;-62
2022/02/17 03:50:42;;;;;;;3.42;1.10;;;;;;;;;;4468421;28;20188;-62
2022/02/17 03:52:56;;;;;;;3.00;0.90;;;;;;;;;;4469955;28;20039;-62
2022/02/17 03:55:12;;;;;;;3.92;1.20;;;;;;;;;;4452094;28;20090;-62
2022/02/17 03:57:27;;;;;;;3.47;1.02;;;;;;;;;;4468353;28;20039;-62
2022/02/17 03:59:40;;;;;;;3.58;1.25;;;;;;;;;;4446596;28;20043;-62
2022/02/17 04:01:51;;;;;;;4.40;1.17;;;;;;;;;;4468608;28;20533;-62
2022/02/17 04:04:09;;;;;;;2.13;0.90;;;;;;;;;;4451726;28;20090;-62
2022/02/17 04:06:19;;;;;;;3.38;1.08;;;;;;;;;;4452270;28;20590;-62
2022/02/17 04:08:30;;;;;;;3.63;1.03;;;;;;;;;;4467965;28;20066;-62
2022/02/17 04:10:40;;;;;;;2.97;1.10;;;;;;;;;;4467175;28;25189;-62
2022/02/17 04:12:55;;;;;;;4.55;1.27;;;;;;;;;;4467228;28;20129;-62
2022/02/17 04:15:09;;;;;;;4.25;1.27;;;;;;;;;;4467714;28;20046;-62
2022/02/17 04:17:21;;;;;;;3.42;1.17;;;;;;;;;;4467835;28;20046;-62
2022/02/17 04:19:54;;;;;;;4.15;1.50;;;;;;;;;;4467745;28;20141;-62
2022/02/17 04:22:34;;;;;;;3.47;1.10;;;;;;;;;;4466625;28;20955;-62
2022/02/17 04:25:04;;;;;;;6.07;1.30;;;;;;;;;;4451558;28;20167;-62
2022/02/17 04:27:15;;;;;;;3.63;1.23;;;;;;;;;;4451708;28;20065;-62
2022/02/17 04:29:37;;;;;;;3.88;1.30;;;;;;;;;;4467579;28;20070;-61
2022/02/17 04:31:50;;;;;;;4.28;1.30;;;;;;;;;;4467624;28;20078;-62
2022/02/17 04:34:01;;;;;;;;;;;;;;;;;;4467465;28;20574;-62
2022/02/17 04:36:12;;;;;;;3.38;1.20;;;;;;;;;;4451547;28;19918;-62
2022/02/17 04:38:23;;;;;;;3.40;1.20;;;;;;;;;;4467324;28;20035;-62
2022/02/17 04:43:04;;;;;;;2.72;1.00;;;;;;;;;;4466953;28;20080;-62
2022/02/17 04:45:14;;;;;;;2.73;1.00;;;;;;;;;;4466900;28;20047;-61
2022/02/17 04:47:25;;;;;;;2.90;1.00;;;;;;;;;;4466013;28;20043;-62
2022/02/17 04:49:36;;;;;;;3.10;1.07;;;;;;;;;;4453510;28;20376;-62
2022/02/17 04:51:46;;;;;;;4.00;1.10;;;;;;;;;;4468809;28;20337;-62
2022/02/17 04:54:02;;;;;;;3.25;1.02;;;;;;;;;;4469140;28;20030;-62
2022/02/17 04:56:13;;;;;;;4.60;1.10;;;;;;;;;;4434724;28;20043;-62
2022/02/17 04:58:24;;;;;;;5.85;1.45;;;;;;;;;;4445694;28;20039;-62
2022/02/17 05:00:35;;;;;;;4.65;1.48;;;;;;;;;;4467341;28;20090;-62
2022/02/17 05:03:06;;;;;;;4.03;1.10;;;;;;;;;;4468592;28;20053;-62
2022/02/17 05:05:25;;;;;;;5.03;1.63;;;;;;;;;;4451995;28;20539;-62
2022/02/17 05:07:36;;;;;;;3.17;1.20;;;;;;;;;;4466469;28;24037;-62
2022/02/17 05:09:47;;;;;;;;;;;;;;;;;;4467131;28;20110;-62
2022/02/17 05:11:58;;;;;;;5.05;1.30;;;;;;;;;;4468440;28;20661;-61
2022/02/17 05:14:09;;;;;;;4.78;1.48;;;;;;;;;;4466952;28;20886;-62
2022/02/17 05:16:21;;;;;;;;;;;;;;;;;;4451433;28;21239;-62
2022/02/17 05:18:32;;;;;;;2.85;1.20;;;;;;;;;;4467537;28;20080;-61
2022/02/17 05:20:45;;;;;;;4.47;1.45;;;;;;;;;;4467300;28;20030;-62
2022/02/17 05:23:05;;;;;;;4.05;1.33;;;;;;;;;;4451392;28;20031;-62
2022/02/17 05:25:34;;;;;;;4.38;1.30;;;;;;;;;;4453512;28;20050;-62
2022/02/17 05:28:00;;;;;;;5.25;1.20;;;;;;;;;;4467434;28;20606;-61
2022/02/17 05:30:21;;;;;;;5.23;1.47;;;;;;;;;;4467406;28;21011;-62
2022/02/17 05:32:52;;;;;;;5.20;1.58;;;;;;;;;;4479797;28;20085;-62
2022/02/17 05:35:12;;;;;;;3.53;1.17;;;;;;;;;;4469242;28;20652;-62
2022/02/17 05:37:36;;;;;;;4.45;1.27;;;;;;;;;;4452944;28;20154;-62
2022/02/17 05:40:24;;;;;;;3.83;1.15;;;;;;;;;;4450323;28;20039;-62
2022/02/17 05:42:35;;;;;;;3.47;1.27;;;;;;;;;;4435005;28;20047;-62
2022/02/17 05:44:45;;;;;;;4.97;1.30;;;;;;;;;;4437023;28;20493;-61
2022/02/17 05:46:56;;;;;;;4.77;1.50;;;;;;;;;;4453293;28;20043;-61
2022/02/17 05:49:07;;;;;;;4.13;1.30;;;;;;;;;;4450163;28;22620;-61
2022/02/17 05:51:18;;;;;;;4.27;1.27;;;;;;;;;;4468016;28;20137;-61
2022/02/17 05:53:28;;;;;;;5.22;1.38;;;;;;;;;;4467958;28;20634;-61
2022/02/17 05:55:40;;;;;;;3.33;1.17;;;;;;;;;;4450120;28;20796;-62
2022/02/17 05:57:51;;;;;;;4.93;1.30;;;;;;;;;;4435987;28;20032;-62
2022/02/17 06:00:03;;;;;;;4.50;1.20;;;;;;;;;;4453949;28;20106;-61
2022/02/17 06:02:23;;;;;;;5.32;1.50;;;;;;;;;;4468392;28;20562;-61
2022/02/17 06:04:33;;;;;;;4.13;1.07;;;;;;;;;;4470794;28;20955;-61
2022/02/17 06:06:43;;;;;;;6.07;1.50;;;;;;;;;;4470036;28;20142;-62
2022/02/17 06:08:54;;;;;;;4.87;1.30;;;;;;;;;;4471285;28;20046;-62
2022/02/17 06:11:04;;;;;;;4.43;1.40;;;;;;;;;;4470681;28;25302;-62
2022/02/17 06:13:15;;;;;;;5.47;1.63;;;;;;;;;;4470664;28;20066;-62
2022/02/17 06:15:27;;;;;;;2.88;1.00;;;;;;;;;;4453841;28;20039;-62
2022/02/17 06:17:37;;;;;;;5.40;1.17;;;;;;;;;;4449314;28;20040;-61
2022/02/17 06:19:48;;;;;;;4.40;1.13;;;;;;;;;;4453450;28;20027;-62
2022/02/17 06:21:58;;;;;;;4.20;1.23;;;;;;;;;;4470513;28;29362;-62
2022/02/17 06:24:09;;;;;;;5.15;1.30;;;;;;;;;;4470795;28;20051;-62
2022/02/17 06:26:20;;;;;;;5.43;1.60;;;;;;;;;;4470772;28;21179;-61
2022/02/17 06:28:30;;;;;;;3.97;1.30;;;;;;;;;;4468782;28;20122;-62
2022/02/17 06:30:44;;;;;;;4.33;1.33;;;;;;;;;;4471217;28;20043;-61
2022/02/17 06:32:56;;;;;;;3.22;1.15;;;;;;;;;;4469580;28;20035;-61
2022/02/17 06:35:06;;;;;;;;;;;;;;;;;;4469002;28;20033;-62
2022/02/17 06:37:17;;;;;;;4.22;1.30;;;;;;;;;;4438278;28;19930;-61
2022/02/17 06:39:27;;;;;;;6.30;1.50;;;;;;;;;;4471246;28;20050;-61
2022/02/17 06:41:38;;;;;;;4.00;1.40;;;;;;;;;;4439005;28;20045;-61
2022/02/17 06:43:50;;;;;;;4.53;1.17;;;;;;;;;;4470423;28;20034;-61
2022/02/17 06:46:01;;;;;;;4.50;1.53;;;;;;;;;;4455320;28;20523;-61
2022/02/17 06:48:11;;;;;;;6.97;2.00;;;;;;;;;;4469648;28;20031;-62
2022/02/17 06:50:22;;;;;;;5.57;1.57;;;;;;;;;;4469807;28;20082;-61
2022/02/17 06:52:33;;;;;;;6.67;1.67;;;;;;;;;;4470258;28;20270;-61
2022/02/17 06:54:43;;;;;;;5.53;1.40;;;;;;;;;;4469732;28;20035;-61
2022/02/17 06:56:54;;;;;;;4.90;1.20;;;;;;;;;;4470100;28;20043;-62
2022/02/17 06:59:04;;;;;;;3.30;1.00;;;;;;;;;;4468050;28;20035;-61
2022/02/17 07:01:15;;;;;;;2.60;0.90;;;;;;;;;;4452454;28;20031;-62
2022/02/17 07:03:25;;;;;;;2.40;0.63;;;;;;;;;;4468229;28;20455;-62
2022/02/17 07:05:36;;;;;;;1.30;0.40;;;;;;;;;;4470411;28;20054;-61
2022/02/17 07:07:47;;;;;;;3.70;0.77;;;;;;;;;;4469571;28;20038;-61
2022/02/17 07:09:57;;;;;;;2.90;0.40;;;;;;;;;;4467846;28;20058;-62
2022/02/17 07:12:09;;;;;;;0.93;0.50;;;;;;;;;;4470315;28;20075;-62
2022/02/17 07:14:20;;;;;;;1.27;0.47;;;;;;;;;;4451977;28;20031;-61
2022/02/17 07:16:34;;;;;;;0.90;0.20;;;;;;;;;;4468973;28;20139;-62
2022/02/17 07:18:46;;;;;;;1.13;0.55;;;;;;;;;;4470330;28;20515;-62
2022/02/17 07:20:59;;;;;;;0.82;0.40;;;;;;;;;;4468253;28;20086;-62
2022/02/17 07:23:10;;;;;;;1.10;0.60;;;;;;;;;;4468751;28;20039;-61
2022/02/17 07:25:21;;;;;;;2.33;0.60;;;;;;;;;;4468735;28;20097;-62
2022/02/17 07:27:31;;;;;;;1.90;0.50;;;;;;;;;;4469219;28;20031;-62
2022/02/17 07:29:42;;;;;;;2.27;0.70;;;;;;;;;;4469356;28;20125;-62
2022/02/17 07:31:52;;;;;;;1.17;0.57;;;;;;;;;;4468888;28;20146;-62
2022/02/17 07:34:03;;;;;;;2.73;0.60;;;;;;;;;;4468374;28;20061;-62
2022/02/17 07:36:14;;;;;;;1.50;0.50;;;;;;;;;;4468524;28;20093;-62
2022/02/17 07:38:24;;;;;;;1.27;0.57;;;;;;;;;;4468203;28;20027;-62
2022/02/17 07:40:35;;;;;;;2.10;0.73;;;;;;;;;;4468820;28;20070;-62
2022/02/17 07:42:46;;;;;;;1.13;0.50;;;;;;;;;;4467709;28;20121;-62
2022/02/17 07:44:56;;;;;;;2.63;0.70;;;;;;;;;;4450145;28;20086;-62
2022/02/17 07:47:07;;;;;;;2.80;0.80;;;;;;;;;;4468714;28;20086;-62
2022/02/17 07:49:17;;;;;;;2.43;0.80;;;;;;;;;;4468313;28;20130;-62
2022/02/17 07:51:28;;;;;;;1.57;0.63;;;;;;;;;;4467432;28;20578;-62
2022/02/17 07:53:39;;;;;;;0.88;0.50;;;;;;;;;;4469112;28;20085;-61
2022/02/17 07:55:49;;;;;;;3.17;0.83;;;;;;;;;;4469449;28;20038;-62
2022/02/17 07:58:04;;;;;;;2.75;0.95;;;;;;;;;;4468812;28;20046;-62
2022/02/17 08:00:15;;;;;;;2.25;0.73;;;;;;;;;;4469407;28;20043;-62
2022/02/17 08:02:26;;;;;;;3.60;0.93;;;;;;;;;;4469384;28;20022;-62
2022/02/17 08:04:36;;;;;;;3.47;0.90;;;;;;;;;;4468967;28;20561;-61
2022/02/17 08:06:46;;;;;;;2.67;0.83;;;;;;;;;;4469064;28;20085;-62
2022/02/17 08:09:00;;;;;;;5.13;1.20;;;;;;;;;;4468700;28;20171;-61
2022/02/17 08:11:10;;;;;;;2.80;0.95;;;;;;;;;;4468824;28;20031;-61
2022/02/17 08:13:21;;;;;;;3.37;0.80;;;;;;;;;;4468728;28;20042;-61
2022/02/17 08:15:32;;;;;;;2.83;0.90;;;;;;;;;;4468933;28;20042;-61
2022/02/17 08:17:43;;;;;;;2.58;0.90;;;;;;;;;;4451102;28;20622;-61
2022/02/17 08:19:54;;;;;;;3.43;0.73;;;;;;;;;;4468305;28;20053;-61
2022/02/17 08:22:04;;;;;;;3.10;0.80;;;;;;;;;;4467898;28;20027;-62
2022/02/17 08:24:16;;;;;;;3.93;1.00;;;;;;;;;;4468267;28;20102;-61
2022/02/17 08:26:26;;;;;;;4.10;1.10;;;;;;;;;;4468857;28;20037;-61
2022/02/17 08:28:37;;;;;;;2.70;0.77;;;;;;;;;;4450797;28;20045;-63
2022/02/17 08:30:47;;;;;;;3.73;1.13;;;;;;;;;;4468453;28;20023;-61
2022/02/17 08:32:57;;;;;;;2.80;1.10;;;;;;;;;;4468699;28;20038;-61
2022/02/17 08:35:10;;;;;;;3.90;1.20;;;;;;;;;;4466559;28;20061;-61
2022/02/17 08:37:21;;;;;;;4.30;1.00;;;;;;;;;;4467986;28;20038;-62
2022/02/17 08:39:33;;;;;;;3.08;1.02;;;;;;;;;;4450098;28;20039;-61
2022/02/17 08:41:43;;;;;;;5.87;1.10;;;;;;;;;;4467646;28;20516;-62
2022/02/17 08:43:53;;;;;;;4.33;0.93;;;;;;;;;;4451146;28;20047;-62
2022/02/17 08:46:05;;;;;;;2.67;0.80;;;;;;;;;;4468913;28;20043;-62
2022/02/17 08:48:15;;;;;;;2.42;0.90;;;;;;;;;;4438436;28;20047;-62
2022/02/17 08:50:25;;;;;;;3.23;1.10;;;;;;;;;;4468450;28;20062;-62
2022/02/17 08:52:37;;;;;;;2.30;0.83;;;;;;;;;;4467335;28;20586;-61
2022/02/17 08:54:48;;;;;;;2.35;1.00;;;;;;;;;;4451111;28;20909;-62
2022/02/17 08:56:59;;;;;;;3.25;1.05;;;;;;;;;;4450498;28;20079;-62
2022/02/17 08:59:09;;;;;;;3.53;1.00;;;;;;;;;;4468160;28;20520;-61
2022/02/17 09:01:19;;;;;;;2.40;0.97;;;;;;;;;;4467743;28;20042;-62
2022/02/17 09:03:30;;;;;;;3.97;1.13;;;;;;;;;;4467853;28;20075;-62
2022/02/17 09:05:41;;;;;;;3.33;0.83;;;;;;;;;;4467830;28;20050;-62
2022/02/17 09:07:51;;;;;;;3.17;1.02;;;;;;;;;;4468356;28;20549;-61
2022/02/17 09:10:02;;;;;;;3.40;0.77;;;;;;;;;;4469138;28;20034;-62
2022/02/17 09:12:12;;;;;;;2.67;0.90;;;;;;;;;;4467867;28;20423;-61
2022/02/17 09:14:23;;;;;;;3.83;1.20;;;;;;;;;;4450286;28;20125;-62
2022/02/17 09:16:34;;;;;;;3.50;1.40;;;;;;;;;;4467949;28;20121;-62
2022/02/17 09:18:45;;;;;;;3.33;1.00;;;;;;;;;;4450720;28;20170;-61
2022/02/17 09:20:55;;;;;;;2.90;0.97;;;;;;;;;;4467917;28;20039;-61
2022/02/17 09:23:06;;;;;;;3.33;1.13;;;;;;;;;;4468397;28;20039;-61
2022/02/17 09:25:17;;;;;;;4.05;1.15;;;;;;;;;;4468687;28;20046;-61
2022/02/17 09:27:27;;;;;;;3.70;1.17;;;;;;;;;;4467794;28;20094;-61
2022/02/17 09:29:39;;;;;;;4.67;1.40;;;;;;;;;;4467865;28;20053;-62
2022/02/17 09:31:50;;;;;;;3.65;1.27;;;;;;;;;;4467773;28;20031;-61
2022/02/17 09:34:00;;;;;;;4.47;1.40;;;;;;;;;;4467959;28;20038;-61
2022/02/17 09:36:11;;;;;;;2.97;1.07;;;;;;;;;;4467565;28;20438;-61
2022/02/17 09:38:21;;;;;;;4.40;1.03;;;;;;;;;;4466530;28;20090;-61
2022/02/17 09:40:32;;;;;;;4.33;1.20;;;;;;;;;;4466496;28;20119;-61
2022/02/17 09:42:42;;;;;;;3.03;0.97;;;;;;;;;;4466080;28;36216;-59
2022/02/17 09:44:53;;;;;;;2.23;0.80;;;;;;;;;;4464423;28;20034;-61
2022/02/17 09:47:04;;;;;;;2.40;0.90;;;;;;;;;;4449455;28;20041;-61
2022/02/17 09:49:16;;;;;;;3.53;0.98;;;;;;;;;;4466373;28;20042;-61
2022/02/17 09:51:28;;;;;;;2.00;0.90;;;;;;;;;;4449949;28;20614;-61
2022/02/17 09:53:39;;;;;;;1.58;0.65;;;;;;;;;;4467448;28;20594;-62
2022/02/17 09:55:49;;;;;;;3.50;0.83;;;;;;;;;;4466980;28;23903;-62
2022/02/17 09:58:01;;;;;;;2.40;0.83;;;;;;;;;;4453216;28;20043;-62
2022/02/17 10:00:12;;;;;;;;;;;;;;;;;;4449991;28;20031;-62
2022/02/17 10:02:24;;;;;;;1.60;0.68;;;;;;;;;;4466366;28;19918;-62
2022/02/17 10:04:35;;;;;;;2.55;0.90;;;;;;;;;;4466129;28;20102;-62
2022/02/17 10:06:50;;;;;;;3.23;1.10;;;;;;;;;;4465580;28;20046;-61
2022/02/17 10:09:07;;;;;;;3.45;0.93;;;;;;;;;;4449867;28;20071;-62
2022/02/17 10:11:28;;;;;;;2.85;0.85;;;;;;;;;;4467477;28;20066;-62
2022/02/17 10:13:39;;;;;;;1.33;0.73;;;;;;;;;;4449886;28;20550;-61
2022/02/17 10:15:54;;;;;;;2.93;0.90;;;;;;;;;;4467882;28;25640;-61
2022/02/17 10:18:16;;;;;;;2.67;0.95;;;;;;;;;;4465989;28;20030;-62
2022/02/17 10:20:27;;;;;;;1.77;0.75;;;;;;;;;;4449420;28;20147;-61
2022/02/17 10:22:37;;;;;;;2.93;1.10;;;;;;;;;;4448876;28;20083;-61
2022/02/17 10:24:50;;;;;;;3.13;0.93;;;;;;;;;;4449202;28;20048;-61
2022/02/17 10:27:05;;;;;;;2.22;0.65;;;;;;;;;;4466656;28;20070;-61
2022/02/17 10:29:16;;;;;;;1.63;0.80;;;;;;;;;;4449747;28;20043;-62
2022/02/17 10:31:35;;;;;;;2.80;0.80;;;;;;;;;;4467703;28;20411;-61
2022/02/17 10:33:46;;;;;;;3.55;1.20;;;;;;;;;;4449418;28;20039;-62
2022/02/17 10:35:58;;;;;;;2.57;0.80;;;;;;;;;;4468051;28;20046;-61
2022/02/17 10:38:17;;;;;;;2.80;0.90;;;;;;;;;;4467738;28;20035;-62
2022/02/17 10:40:33;;;;;;;3.40;0.70;;;;;;;;;;4450363;28;20099;-62
2022/02/17 10:42:57;;;;;;;2.63;0.93;;;;;;;;;;4449588;28;20500;-62
2022/02/17 10:45:21;;;;;;;1.63;0.65;;;;;;;;;;4453056;28;20085;-62
2022/02/17 10:47:32;;;;;;;3.65;1.10;;;;;;;;;;4452416;28;20032;-61
2022/02/17 10:49:50;;;;;;;4.38;0.93;;;;;;;;;;4469033;28;20035;-62
2022/02/17 10:52:01;;;;;;;1.85;0.80;;;;;;;;;;4450019;28;20150;-62
2022/02/17 10:54:11;;;;;;;2.77;1.10;;;;;;;;;;4469097;28;20043;-62
2022/02/17 10:56:24;;;;;;;3.03;0.90;;;;;;;;;;4451879;28;20504;-62
2022/02/17 10:58:46;;;;;;;3.15;0.90;;;;;;;;;;4469809;28;20175;-62
2022/02/17 11:01:01;;;;;;;1.90;0.80;;;;;;;;;;4468733;28;20066;-61
2022/02/17 11:03:12;;;;;;;2.78;0.90;;;;;;;;;;4468752;28;20057;-62
2022/02/17 11:05:23;;;;;;;2.73;0.90;;;;;;;;;;4470102;28;20058;-62
2022/02/17 11:07:36;;;;;;;2.77;1.07;;;;;;;;;;4469603;28;20034;-62
2022/02/17 11:09:47;;;;;;;2.33;0.80;;;;;;;;;;4467526;28;20129;-62
2022/02/17 11:11:58;;;;;;;1.48;0.70;;;;;;;;;;4468978;28;20215;-62
2022/02/17 11:14:08;;;;;;;3.07;0.70;;;;;;;;;;4450536;28;20126;-62
2022/02/17 11:16:21;;;;;;;2.10;0.80;;;;;;;;;;4433718;28;26752;-62
2022/02/17 11:18:32;;;;;;;2.17;0.68;;;;;;;;;;4467824;28;20069;-62
2022/02/17 11:20:43;;;;;;;2.10;0.77;;;;;;;;;;4451460;28;20590;-61
2022/02/17 11:22:53;;;;;;;1.97;0.70;;;;;;;;;;4468880;28;20105;-61
2022/02/17 11:25:04;;;;;;;2.67;0.70;;;;;;;;;;4449886;28;22411;-61
2022/02/17 11:27:15;;;;;;;2.00;0.68;;;;;;;;;;4467750;28;20093;-61
2022/02/17 11:29:30;;;;;;;3.33;0.95;;;;;;;;;;4468036;28;20042;-62
2022/02/17 11:31:58;;;;;;;2.10;0.77;;;;;;;;;;4467798;28;20053;-62
2022/02/17 11:34:10;;;;;;;2.65;0.80;;;;;;;;;;4450609;28;20718;-62
2022/02/17 11:36:22;;;;;;;2.17;0.65;;;;;;;;;;4433202;28;20027;-62
2022/02/17 11:38:37;;;;;;;2.15;0.60;;;;;;;;;;4466508;28;20094;-62
2022/02/17 11:41:05;;;;;;;2.05;0.75;;;;;;;;;;4449815;28;20024;-62
2022/02/17 11:43:26;;;;;;;2.80;0.80;;;;;;;;;;4469006;28;20122;-61
2022/02/17 11:45:44;;;;;;;2.70;0.70;;;;;;;;;;4467342;28;20035;-62
2022/02/17 11:47:59;;;;;;;2.47;0.88;;;;;;;;;;4449923;28;20042;-61
2022/02/17 11:50:33;;;;;;;2.20;0.90;;;;;;;;;;4466720;28;20109;-61
2022/02/17 11:53:23;;;;;;;2.63;0.75;;;;;;;;;;4450696;28;20035;-61
2022/02/17 11:55:33;;;;;;;1.75;0.60;;;;;;;;;;4467866;28;20922;-61
2022/02/17 11:57:44;;;;;;;2.17;0.87;;;;;;;;;;4449591;28;20051;-61
2022/02/17 12:00:25;;;;;;;2.75;0.90;;;;;;;;;;4465718;28;20034;-61
2022/02/17 12:02:43;;;;;;;1.83;0.70;;;;;;;;;;4467595;28;20047;-61
2022/02/17 12:05:13;;;;;;;2.50;0.70;;;;;;;;;;4467543;28;20071;-61
2022/02/17 12:07:34;;;;;;;2.47;0.60;;;;;;;;;;4466731;28;20605;-61
2022/02/17 12:09:44;;;;;;;2.22;0.73;;;;;;;;;;4451297;28;20495;-61
2022/02/17 12:12:07;;;;;;;2.90;1.00;;;;;;;;;;4450627;28;20079;-61
2022/02/17 12:14:20;;;;;;;2.33;0.70;;;;;;;;;;4468514;28;20617;-61
2022/02/17 12:16:33;;;;;;;2.85;0.80;;;;;;;;;;4449787;28;20035;-61
2022/02/17 12:18:43;;;;;;;2.85;1.23;;;;;;;;;;4465964;28;20031;-61
2022/02/17 12:20:58;;;;;;;3.03;0.60;;;;;;;;;;4467263;28;20433;-62
2022/02/17 12:23:08;;;;;;;2.35;0.80;;;;;;;;;;4467530;28;20577;-61
2022/02/17 12:25:26;;;;;;;1.97;0.50;;;;;;;;;;4467103;28;20046;-61
2022/02/17 12:27:38;;;;;;;1.92;0.60;;;;;;;;;;4449938;28;20090;-61
2022/02/17 12:29:48;;;;;;;2.53;0.90;;;;;;;;;;4450039;28;20035;-61
2022/02/17 12:32:01;;;;;;;3.47;1.00;;;;;;;;;;4466209;28;20062;-61
2022/02/17 12:34:12;;;;;;;2.42;0.65;;;;;;;;;;4448283;28;20031;-62
2022/02/17 12:36:22;;;;;;;1.43;0.70;;;;;;;;;;4466508;28;20503;-61
2022/02/17 12:38:34;;;;;;;2.80;0.70;;;;;;;;;;4465739;28;20145;-61
2022/02/17 12:40:46;;;;;;;2.65;1.08;;;;;;;;;;4466948;28;20587;-60
2022/02/17 12:42:56;;;;;;;1.98;0.70;;;;;;;;;;4467356;28;20031;-61
2022/02/17 12:45:08;;;;;;;2.43;0.70;;;;;;;;;;4467594;28;20074;-61
2022/02/17 12:47:18;;;;;;;;;;;;;;;;;;4467301;28;20098;-62
2022/02/17 12:49:31;;;;;;;;;;;;;;;;;;4468776;28;19976;-61
2022/02/17 12:51:41;;;;;;;2.63;0.73;;;;;;;;;;4468621;28;19925;-62
2022/02/17 12:53:56;;;;;;;2.80;0.70;;;;;;;;;;4468413;28;20038;-62
2022/02/17 12:56:07;;;;;;;3.17;0.93;;;;;;;;;;4449617;28;20043;-62
2022/02/17 12:58:25;;;;;;;2.80;0.70;;;;;;;;;;4466926;28;20043;-61
2022/02/17 13:00:36;;;;;;;2.63;0.82;;;;;;;;;;4467193;28;20597;-62
2022/02/17 13:02:48;;;;;;;3.07;1.00;;;;;;;;;;4467452;28;20043;-62
2022/02/17 13:04:59;;;;;;;2.45;0.60;;;;;;;;;;4465245;28;20043;-62
2022/02/17 13:07:12;;;;;;;1.40;0.57;;;;;;;;;;4449081;28;20062;-62
2022/02/17 13:09:24;;;;;;;1.70;0.70;;;;;;;;;;4467605;28;20566;-62
2022/02/17 13:11:34;;;;;;;2.38;0.80;;;;;;;;;;4449739;28;20046;-63
2022/02/17 13:13:46;;;;;;;2.53;0.80;;;;;;;;;;4466915;28;20046;-62
2022/02/17 13:15:56;;;;;;;3.33;0.60;;;;;;;;;;4468160;28;20411;-61
2022/02/17 13:18:07;;;;;;;2.93;0.83;;;;;;;;;;4434037;28;20046;-61
2022/02/17 13:20:25;;;;;;;3.47;0.77;;;;;;;;;;4467879;28;20439;-62
2022/02/17 13:22:38;;;;;;;2.35;0.77;;;;;;;;;;4467117;28;20034;-61